Time,TemperatureF,DewpointF,PressureIn,WindDirection,WindDirectionDegrees,WindSpeedMPH,WindSpeedGustMPH,Humidity,HourlyPrecipIn,Conditions,Clouds,dailyrainin,SoftwareType,DateUTC
2013-06-20 00:00:00,62.6,62.3,30.12,WNW,291,0.0,0.0,99,0.00,,OVC055,0.00,VWS V14.01,2013-06-20 04:00:00,
2013-06-20 00:01:00,62.5,61.9,30.12,WNW,291,0.0,0.0,98,0.00,,OVC055,0.00,VWS V14.01,2013-06-20 04:01:00,
2013-06-20 00:06:00,62.3,61.7,30.12,WNW,291,0.0,0.0,98,0.00,,OVC055,0.00,VWS V14.01,2013-06-20 04:06:00,
2013-06-20 00:11:00,62.1,61.5,30.12,WNW,291,0.0,0.0,98,0.00,,OVC055,0.00,VWS V14.01,2013-06-20 04:11:00,
2013-06-20 00:16:00,62.0,61.4,30.12,WNW,291,0.0,0.0,98,0.00,,OVC055,0.00,VWS V14.01,2013-06-20 04:16:00,
2013-06-20 00:21:00,61.9,61.6,30.12,WNW,291,0.0,0.0,99,0.00,,OVC055,0.00,VWS V14.01,2013-06-20 04:21:00,
2013-06-20 00:26:00,61.9,61.6,30.12,WNW,291,0.0,0.0,99,0.00,,OVC055,0.00,VWS V14.01,2013-06-20 04:26:00,
2013-06-20 00:30:00,61.8,61.5,30.12,WNW,291,0.0,0.0,99,0.00,,OVC055,0.00,VWS V14.01,2013-06-20 04:30:00,
2013-06-20 00:31:00,61.8,61.5,30.12,WNW,291,0.0,0.0,99,0.00,,OVC055,0.00,VWS V14.01,2013-06-20 04:31:00,
2013-06-20 00:36:00,61.6,61.3,30.12,WNW,291,0.0,0.0,99,0.00,,OVC055,0.00,VWS V14.01,2013-06-20 04:36:00,
2013-06-20 00:41:00,61.6,61.3,30.11,WNW,291,0.0,0.0,99,0.00,,OVC055,0.00,VWS V14.01,2013-06-20 04:41:00,
2013-06-20 00:46:00,61.6,61.3,30.12,WNW,291,0.0,0.0,99,0.00,,OVC055,0.00,VWS V14.01,2013-06-20 04:46:00,
2013-06-20 00:51:00,61.5,61.2,30.12,WNW,291,0.0,0.0,99,0.00,,OVC055,0.00,VWS V14.01,2013-06-20 04:51:00,
2013-06-20 00:56:00,61.3,61.0,30.12,WNW,291,0.0,0.0,99,0.00,,OVC055,0.00,VWS V14.01,2013-06-20 04:56:00,
2013-06-20 01:00:00,61.3,61.0,30.11,WNW,291,0.0,0.0,99,0.00,,OVC055,0.00,VWS V14.01,2013-06-20 05:00:00,
2013-06-20 01:01:00,61.2,60.9,30.12,WNW,291,0.0,0.0,99,0.00,,OVC055,0.00,VWS V14.01,2013-06-20 05:01:00,
2013-06-20 01:06:00,61.0,60.7,30.12,WNW,291,0.0,0.0,99,0.00,,OVC055,0.00,VWS V14.01,2013-06-20 05:06:00,
2013-06-20 01:11:00,61.0,60.7,30.12,WNW,291,0.0,0.0,99,0.00,,OVC055,0.00,VWS V14.01,2013-06-20 05:11:00,
2013-06-20 01:16:00,61.0,60.7,30.12,WNW,291,0.0,0.0,99,0.00,,OVC055,0.00,VWS V14.01,2013-06-20 05:16:00,
2013-06-20 01:21:00,60.9,60.6,30.12,WNW,291,0.0,0.0,99,0.00,,OVC055,0.00,VWS V14.01,2013-06-20 05:21:00,
2013-06-20 01:26:00,60.9,60.6,30.12,WNW,291,0.0,0.0,99,0.00,,OVC055,0.00,VWS V14.01,2013-06-20 05:26:00,
2013-06-20 01:30:00,60.9,60.6,30.12,WNW,291,0.0,0.0,99,0.00,,OVC055,0.00,VWS V14.01,2013-06-20 05:30:00,
2013-06-20 01:31:00,60.9,60.6,30.12,WNW,291,0.0,0.0,99,0.00,,OVC055,0.00,VWS V14.01,2013-06-20 05:31:00,
2013-06-20 01:36:00,60.7,60.4,30.12,WNW,291,0.0,0.0,99,0.00,,OVC055,0.00,VWS V14.01,2013-06-20 05:36:00,
2013-06-20 01:41:00,60.5,60.2,30.12,WNW,291,0.0,0.0,99,0.00,,OVC055,0.00,VWS V14.01,2013-06-20 05:41:00,
2013-06-20 01:45:00,60.4,60.1,30.12,WNW,291,0.0,0.0,99,0.00,,OVC055,0.00,VWS V14.01,2013-06-20 05:45:00,
2013-06-20 01:50:00,60.3,60.0,30.12,WNW,291,0.0,0.0,99,0.00,,OVC055,0.00,VWS V14.01,2013-06-20 05:50:00,
2013-06-20 01:55:00,60.3,60.0,30.12,WNW,291,0.0,0.0,99,0.00,,OVC055,0.00,VWS V14.01,2013-06-20 05:55:00,
2013-06-20 02:00:00,60.2,60.2,30.12,WNW,291,0.0,0.0,100,0.00,,OVC055,0.00,VWS V14.01,2013-06-20 06:00:00,
2013-06-20 02:05:00,60.1,60.1,30.12,WNW,291,0.0,0.0,100,0.00,,OVC055,0.00,VWS V14.01,2013-06-20 06:05:00,
2013-06-20 02:10:00,60.1,60.1,30.12,WNW,291,0.0,0.0,100,0.00,,OVC055,0.00,VWS V14.01,2013-06-20 06:10:00,
2013-06-20 02:15:00,60.0,59.7,30.12,WNW,291,0.0,0.0,99,0.00,,OVC055,0.00,VWS V14.01,2013-06-20 06:15:00,
2013-06-20 02:20:00,59.8,59.5,30.12,WNW,291,0.0,0.0,99,0.00,,OVC055,0.00,VWS V14.01,2013-06-20 06:20:00,
2013-06-20 02:25:00,59.8,59.5,30.12,WNW,291,0.0,0.0,99,0.00,,OVC055,0.00,VWS V14.01,2013-06-20 06:25:00,
2013-06-20 02:30:00,59.7,59.4,30.12,WNW,291,0.0,0.0,99,0.00,,OVC055,0.00,VWS V14.01,2013-06-20 06:30:00,
2013-06-20 02:35:00,59.7,59.7,30.12,WNW,291,0.0,0.0,100,0.00,,OVC055,0.00,VWS V14.01,2013-06-20 06:35:00,
2013-06-20 02:40:00,59.7,59.7,30.12,WNW,291,0.0,0.0,100,0.00,,OVC055,0.00,VWS V14.01,2013-06-20 06:40:00,
2013-06-20 02:45:00,59.7,59.7,30.11,WNW,291,0.0,0.0,100,0.00,,OVC055,0.00,VWS V14.01,2013-06-20 06:45:00,
2013-06-20 02:50:00,59.6,59.6,30.12,WNW,291,0.0,0.0,100,0.00,,OVC055,0.00,VWS V14.01,2013-06-20 06:50:00,
2013-06-20 02:55:00,59.6,59.6,30.12,WNW,291,0.0,0.0,100,0.00,,OVC055,0.00,VWS V14.01,2013-06-20 06:55:00,
2013-06-20 03:00:00,59.6,59.6,30.12,WNW,291,0.0,0.0,100,0.00,,OVC055,0.00,VWS V14.01,2013-06-20 07:00:00,
2013-06-20 03:05:00,59.6,59.6,30.12,WNW,291,0.0,0.0,100,0.00,,OVC055,0.00,VWS V14.01,2013-06-20 07:05:00,
2013-06-20 03:10:00,59.6,59.6,30.12,WNW,291,0.0,0.0,100,0.00,,OVC055,0.00,VWS V14.01,2013-06-20 07:10:00,
2013-06-20 03:15:00,59.6,59.6,30.12,WNW,291,0.0,0.0,100,0.00,,OVC055,0.00,VWS V14.01,2013-06-20 07:15:00,
2013-06-20 03:20:00,59.7,59.7,30.12,WNW,291,0.0,0.0,100,0.00,,OVC055,0.00,VWS V14.01,2013-06-20 07:20:00,
2013-06-20 03:25:00,59.7,59.7,30.12,WNW,291,0.0,0.0,100,0.00,,OVC055,0.00,VWS V14.01,2013-06-20 07:25:00,
2013-06-20 03:30:00,59.7,59.7,30.12,WNW,291,0.0,0.0,100,0.00,,OVC055,0.00,VWS V14.01,2013-06-20 07:30:00,
2013-06-20 03:35:00,59.6,59.6,30.12,WNW,291,0.0,0.0,100,0.00,,OVC055,0.00,VWS V14.01,2013-06-20 07:35:00,
2013-06-20 03:40:00,59.7,59.7,30.12,WNW,291,0.0,0.0,100,0.00,,OVC055,0.00,VWS V14.01,2013-06-20 07:40:00,
2013-06-20 03:45:00,59.7,59.7,30.13,WNW,291,0.0,0.0,100,0.00,,OVC055,0.00,VWS V14.01,2013-06-20 07:45:00,
2013-06-20 03:50:00,59.6,59.6,30.13,WNW,291,0.0,0.0,100,0.00,,OVC055,0.00,VWS V14.01,2013-06-20 07:50:00,
2013-06-20 03:55:00,59.6,59.6,30.13,WNW,291,0.0,0.0,100,0.00,,OVC055,0.00,VWS V14.01,2013-06-20 07:55:00,
2013-06-20 04:00:00,59.5,59.5,30.13,WNW,291,0.0,0.0,100,0.00,,OVC055,0.00,VWS V14.01,2013-06-20 08:00:00,
2013-06-20 04:05:00,59.5,59.5,30.13,WNW,291,0.0,0.0,100,0.00,,OVC055,0.00,VWS V14.01,2013-06-20 08:05:00,
2013-06-20 04:10:00,59.4,59.4,30.13,WNW,291,0.0,0.0,100,0.00,,OVC055,0.00,VWS V14.01,2013-06-20 08:10:00,
2013-06-20 04:15:00,59.4,59.4,30.13,WNW,291,0.0,0.0,100,0.00,,OVC055,0.00,VWS V14.01,2013-06-20 08:15:00,
2013-06-20 04:20:00,59.4,59.4,30.13,WNW,291,0.0,0.0,100,0.00,,OVC055,0.00,VWS V14.01,2013-06-20 08:20:00,
2013-06-20 04:25:00,59.4,59.4,30.13,WNW,291,0.0,0.0,100,0.00,,OVC055,0.00,VWS V14.01,2013-06-20 08:25:00,
2013-06-20 04:30:00,59.5,59.5,30.14,WNW,291,0.0,0.0,100,0.00,,OVC055,0.00,VWS V14.01,2013-06-20 08:30:00,
2013-06-20 04:35:00,59.6,59.6,30.14,WNW,291,0.0,0.0,100,0.00,,OVC055,0.00,VWS V14.01,2013-06-20 08:35:00,
2013-06-20 04:40:00,59.6,59.6,30.14,WNW,291,0.0,0.0,100,0.00,,OVC055,0.00,VWS V14.01,2013-06-20 08:40:00,
2013-06-20 04:45:00,59.7,59.7,30.14,WNW,291,0.0,0.0,100,0.00,,OVC055,0.00,VWS V14.01,2013-06-20 08:45:00,
2013-06-20 04:50:00,59.8,59.8,30.14,WNW,291,0.0,0.0,100,0.00,,OVC055,0.00,VWS V14.01,2013-06-20 08:50:00,
2013-06-20 04:55:00,59.9,59.9,30.14,WNW,291,0.0,0.0,100,0.00,,OVC055,0.00,VWS V14.01,2013-06-20 08:55:00,
2013-06-20 05:00:00,59.9,59.9,30.14,WNW,291,0.0,0.0,100,0.00,,OVC055,0.00,VWS V14.01,2013-06-20 09:00:00,
2013-06-20 05:05:00,59.8,59.8,30.14,WNW,291,0.0,0.0,100,0.00,,OVC055,0.00,VWS V14.01,2013-06-20 09:05:00,
2013-06-20 05:10:00,59.7,59.7,30.14,WNW,291,0.0,0.0,100,0.00,,OVC055,0.00,VWS V14.01,2013-06-20 09:10:00,
2013-06-20 05:15:00,59.6,59.6,30.14,WNW,291,0.0,0.0,100,0.00,,OVC055,0.00,VWS V14.01,2013-06-20 09:15:00,
2013-06-20 05:20:00,59.5,59.5,30.14,WNW,291,0.0,0.0,100,0.00,,OVC055,0.00,VWS V14.01,2013-06-20 09:20:00,
2013-06-20 05:25:00,59.5,59.5,30.14,WNW,291,0.0,0.0,100,0.00,,OVC055,0.00,VWS V14.01,2013-06-20 09:25:00,
2013-06-20 05:30:00,59.5,59.5,30.14,WNW,291,0.0,0.0,100,0.00,,OVC055,0.00,VWS V14.01,2013-06-20 09:30:00,
2013-06-20 05:35:00,59.5,59.5,30.14,WNW,291,0.0,0.0,100,0.00,,OVC055,0.00,VWS V14.01,2013-06-20 09:35:00,
2013-06-20 05:40:00,59.5,59.5,30.15,WNW,291,0.0,0.0,100,0.00,,OVC055,0.00,VWS V14.01,2013-06-20 09:40:00,
2013-06-20 05:45:00,59.6,59.6,30.15,WNW,291,0.0,0.0,100,0.00,,OVC055,0.00,VWS V14.01,2013-06-20 09:45:00,
2013-06-20 05:50:00,59.6,59.6,30.15,WNW,291,0.0,0.0,100,0.00,,OVC055,0.00,VWS V14.01,2013-06-20 09:50:00,
2013-06-20 05:55:00,59.6,59.6,30.15,WNW,291,0.0,0.0,100,0.00,,OVC055,0.00,VWS V14.01,2013-06-20 09:55:00,
2013-06-20 06:00:00,59.6,59.6,30.16,WNW,291,0.0,0.0,100,0.00,,OVC055,0.00,VWS V14.01,2013-06-20 10:00:00,
2013-06-20 06:05:00,59.6,59.6,30.16,WNW,291,0.0,0.0,100,0.00,,OVC055,0.00,VWS V14.01,2013-06-20 10:05:00,
2013-06-20 06:10:00,59.7,59.7,30.16,WNW,291,0.0,0.0,100,0.00,,OVC055,0.00,VWS V14.01,2013-06-20 10:10:00,
2013-06-20 06:15:00,59.7,59.7,30.16,WNW,291,0.0,0.0,100,0.00,,OVC055,0.00,VWS V14.01,2013-06-20 10:15:00,
2013-06-20 06:20:00,59.7,59.7,30.16,WNW,291,0.0,0.0,100,0.00,,OVC055,0.00,VWS V14.01,2013-06-20 10:20:00,
2013-06-20 06:25:00,59.7,59.7,30.16,WNW,291,0.0,0.0,100,0.00,,OVC055,0.00,VWS V14.01,2013-06-20 10:25:00,
2013-06-20 06:30:00,59.7,59.7,30.16,WNW,291,0.0,0.0,100,0.00,,OVC055,0.00,VWS V14.01,2013-06-20 10:30:00,
2013-06-20 06:35:00,59.7,59.7,30.17,WNW,291,0.0,0.0,100,0.00,,OVC055,0.00,VWS V14.01,2013-06-20 10:35:00,
2013-06-20 06:40:00,59.7,59.7,30.17,WNW,291,0.0,0.0,100,0.00,,OVC055,0.00,VWS V14.01,2013-06-20 10:40:00,
2013-06-20 06:45:00,59.7,59.7,30.17,WNW,291,0.0,0.0,100,0.00,,OVC055,0.00,VWS V14.01,2013-06-20 10:45:00,
2013-06-20 06:50:00,59.8,59.8,30.17,WNW,291,0.0,0.0,100,0.00,,OVC055,0.00,VWS V14.01,2013-06-20 10:50:00,
2013-06-20 06:55:00,59.8,59.8,30.17,WNW,291,0.0,0.0,100,0.00,,OVC055,0.00,VWS V14.01,2013-06-20 10:55:00,
2013-06-20 07:00:00,59.8,59.8,30.17,WNW,291,0.0,0.0,100,0.00,,OVC055,0.00,VWS V14.01,2013-06-20 11:00:00,
2013-06-20 07:05:00,59.9,59.9,30.17,WNW,291,0.0,0.0,100,0.00,,OVC055,0.00,VWS V14.01,2013-06-20 11:05:00,
2013-06-20 07:10:00,59.9,59.9,30.17,WNW,291,0.0,0.0,100,0.00,,OVC055,0.00,VWS V14.01,2013-06-20 11:10:00,
2013-06-20 07:15:00,60.1,60.1,30.17,WNW,291,0.0,0.0,100,0.00,,OVC055,0.00,VWS V14.01,2013-06-20 11:15:00,
2013-06-20 07:20:00,60.0,60.0,30.17,WNW,291,0.0,0.0,100,0.00,,OVC055,0.00,VWS V14.01,2013-06-20 11:20:00,
2013-06-20 07:25:00,60.0,60.0,30.17,WNW,291,0.0,0.0,100,0.00,,OVC055,0.00,VWS V14.01,2013-06-20 11:25:00,
2013-06-20 07:30:00,60.0,60.0,30.18,WNW,291,0.0,0.0,100,0.00,,OVC055,0.00,VWS V14.01,2013-06-20 11:30:00,
2013-06-20 07:35:00,60.1,60.1,30.18,WNW,291,0.0,0.0,100,0.00,,OVC055,0.00,VWS V14.01,2013-06-20 11:35:00,
2013-06-20 07:40:00,60.2,60.2,30.18,WNW,291,0.0,0.0,100,0.00,,OVC055,0.00,VWS V14.01,2013-06-20 11:40:00,
2013-06-20 07:45:00,60.3,60.3,30.19,WNW,291,0.0,0.0,100,0.00,,OVC055,0.00,VWS V14.01,2013-06-20 11:45:00,
2013-06-20 07:50:00,60.5,60.5,30.19,WNW,292,0.0,0.0,100,0.00,,OVC055,0.00,VWS V14.01,2013-06-20 11:50:00,
2013-06-20 07:54:00,61.1,61.1,30.19,NW,306,0.0,0.0,100,0.00,,OVC055,0.00,VWS V14.01,2013-06-20 11:54:00,
2013-06-20 07:59:00,61.5,61.5,30.19,NE,38,1.0,1.0,100,0.00,,OVC055,0.00,VWS V14.01,2013-06-20 11:59:00,
2013-06-20 08:00:00,61.4,61.4,30.19,NE,38,0.0,0.0,100,0.00,,OVC055,0.00,VWS V14.01,2013-06-20 12:00:00,
2013-06-20 08:04:00,62.0,62.0,30.19,NE,38,1.0,1.0,100,0.00,,OVC055,0.00,VWS V14.01,2013-06-20 12:04:00,
2013-06-20 08:09:00,62.0,62.0,30.19,NE,42,0.0,2.0,100,0.00,,OVC055,0.00,VWS V14.01,2013-06-20 12:09:00,
2013-06-20 08:14:00,62.1,62.1,30.20,NE,41,1.0,2.0,100,0.00,,OVC055,0.00,VWS V14.01,2013-06-20 12:14:00,
2013-06-20 08:19:00,61.8,61.8,30.20,NE,40,0.0,2.0,100,0.00,,OVC055,0.00,VWS V14.01,2013-06-20 12:19:00,
2013-06-20 08:24:00,61.9,61.9,30.20,NE,38,0.0,2.0,100,0.00,,OVC055,0.00,VWS V14.01,2013-06-20 12:24:00,
2013-06-20 08:29:00,62.2,62.2,30.20,ENE,61,0.0,1.0,100,0.00,,OVC055,0.00,VWS V14.01,2013-06-20 12:29:00,
2013-06-20 08:30:00,62.1,62.1,30.20,NE,38,0.0,2.0,100,0.00,,OVC055,0.00,VWS V14.01,2013-06-20 12:30:00,
2013-06-20 08:34:00,62.3,62.3,30.20,NE,52,0.0,2.0,100,0.00,,OVC055,0.00,VWS V14.01,2013-06-20 12:34:00,
2013-06-20 08:39:00,62.4,62.1,30.20,NE,52,0.0,2.0,99,0.00,,OVC055,0.00,VWS V14.01,2013-06-20 12:39:00,
2013-06-20 08:44:00,62.6,62.3,30.20,NE,49,0.0,2.0,99,0.00,,OVC055,0.00,VWS V14.01,2013-06-20 12:44:00,
2013-06-20 08:49:00,62.6,62.0,30.21,NE,49,0.0,2.0,98,0.00,,OVC055,0.00,VWS V14.01,2013-06-20 12:49:00,
2013-06-20 08:54:00,62.7,62.1,30.21,NE,49,0.0,2.0,98,0.00,,OVC055,0.00,VWS V14.01,2013-06-20 12:54:00,
2013-06-20 08:59:00,62.8,62.2,30.20,NE,49,0.0,0.0,98,0.00,,OVC055,0.00,VWS V14.01,2013-06-20 12:59:00,
2013-06-20 09:00:00,62.8,62.2,30.20,NE,49,0.0,2.0,98,0.00,,OVC055,0.00,VWS V14.01,2013-06-20 13:00:00,
2013-06-20 09:04:00,63.1,62.8,30.20,NE,49,0.0,0.0,99,0.00,,OVC055,0.00,VWS V14.01,2013-06-20 13:04:00,
2013-06-20 09:09:00,63.3,62.7,30.21,NE,38,0.0,0.0,98,0.00,,OVC055,0.00,VWS V14.01,2013-06-20 13:09:00,
2013-06-20 09:14:00,63.5,62.9,30.21,NE,48,0.0,0.0,98,0.00,,OVC055,0.00,VWS V14.01,2013-06-20 13:14:00,
2013-06-20 09:19:00,63.8,63.2,30.21,NE,48,0.0,0.0,98,0.00,,OVC055,0.00,VWS V14.01,2013-06-20 13:19:00,
2013-06-20 09:24:00,63.9,63.3,30.21,NE,48,0.0,1.0,98,0.00,,OVC055,0.00,VWS V14.01,2013-06-20 13:24:00,
2013-06-20 09:29:00,64.1,63.5,30.21,NE,47,0.0,0.0,98,0.00,,OVC055,0.00,VWS V14.01,2013-06-20 13:29:00,
2013-06-20 09:30:00,64.1,63.2,30.21,NE,47,0.0,1.0,97,0.00,,OVC055,0.00,VWS V14.01,2013-06-20 13:30:00,
2013-06-20 09:34:00,64.5,63.6,30.21,NE,48,0.0,0.0,97,0.00,,OVC055,0.00,VWS V14.01,2013-06-20 13:34:00,
2013-06-20 09:39:00,64.9,64.0,30.21,NE,46,1.0,1.0,97,0.00,,OVC055,0.00,VWS V14.01,2013-06-20 13:39:00,
2013-06-20 09:44:00,65.4,64.2,30.21,NE,53,0.0,1.0,96,0.00,,OVC055,0.00,VWS V14.01,2013-06-20 13:44:00,
2013-06-20 09:49:00,66.4,64.9,30.21,NE,43,2.0,3.0,95,0.00,,OVC055,0.00,VWS V14.01,2013-06-20 13:49:00,
2013-06-20 09:54:00,66.8,65.0,30.21,NE,39,1.0,3.0,94,0.00,,OVC055,0.00,VWS V14.01,2013-06-20 13:54:00,
2013-06-20 09:59:00,67.2,65.1,30.20,NE,36,2.0,2.0,93,0.00,,OVC055,0.00,VWS V14.01,2013-06-20 13:59:00,
2013-06-20 10:00:00,67.1,65.0,30.20,NE,39,0.0,3.0,93,0.00,,OVC055,0.00,VWS V14.01,2013-06-20 14:00:00,
2013-06-20 10:04:00,67.6,64.9,30.20,NNE,23,1.0,3.0,91,0.00,,OVC055,0.00,VWS V14.01,2013-06-20 14:04:00,
2013-06-20 10:09:00,68.1,66.0,30.20,NNE,31,0.0,3.0,93,0.00,,OVC055,0.00,VWS V14.01,2013-06-20 14:09:00,
2013-06-20 10:14:00,68.9,65.8,30.20,NNE,28,1.0,3.0,90,0.00,,OVC055,0.00,VWS V14.01,2013-06-20 14:14:00,
2013-06-20 10:19:00,69.8,66.7,30.20,NNE,28,2.0,3.0,90,0.00,,OVC055,0.00,VWS V14.01,2013-06-20 14:19:00,
2013-06-20 10:24:00,70.4,66.0,30.20,NNE,20,2.0,4.0,86,0.00,,OVC055,0.00,VWS V14.01,2013-06-20 14:24:00,
2013-06-20 10:29:00,70.9,66.5,30.20,NNW,340,3.0,4.0,86,0.00,,OVC055,0.00,VWS V14.01,2013-06-20 14:29:00,
2013-06-20 10:30:00,70.9,66.5,30.20,NNW,339,4.0,4.0,86,0.00,,OVC055,0.00,VWS V14.01,2013-06-20 14:30:00,
2013-06-20 10:34:00,71.1,65.7,30.20,North,5,2.0,5.0,83,0.00,,OVC055,0.00,VWS V14.01,2013-06-20 14:34:00,
2013-06-20 10:39:00,71.5,67.1,30.19,NNE,16,1.0,5.0,86,0.00,,OVC055,0.00,VWS V14.01,2013-06-20 14:39:00,
2013-06-20 10:44:00,71.7,67.3,30.19,North,355,2.0,5.0,86,0.00,,OVC055,0.00,VWS V14.01,2013-06-20 14:44:00,
2013-06-20 10:49:00,72.1,66.3,30.20,ENE,77,3.0,6.0,82,0.00,,OVC055,0.00,VWS V14.01,2013-06-20 14:49:00,
2013-06-20 10:54:00,72.1,65.6,30.20,NNE,13,0.0,6.0,80,0.00,,OVC055,0.00,VWS V14.01,2013-06-20 14:54:00,
2013-06-20 10:59:00,72.5,66.3,30.20,NNE,13,0.0,1.0,81,0.00,,OVC055,0.00,VWS V14.01,2013-06-20 14:59:00,
2013-06-20 11:00:00,72.5,66.3,30.20,NNE,13,1.0,6.0,81,0.00,,OVC055,0.00,VWS V14.01,2013-06-20 15:00:00,
2013-06-20 11:04:00,72.9,67.4,30.20,North,360,4.0,5.0,83,0.00,,OVC055,0.00,VWS V14.01,2013-06-20 15:04:00,
2013-06-20 11:09:00,72.6,66.1,30.21,NE,38,4.0,5.0,80,0.00,,OVC055,0.00,VWS V14.01,2013-06-20 15:09:00,
2013-06-20 11:14:00,72.1,64.9,30.21,NNE,13,3.0,5.0,78,0.00,,OVC055,0.00,VWS V14.01,2013-06-20 15:14:00,
2013-06-20 11:19:00,72.2,66.1,30.20,NNE,13,1.0,5.0,81,0.00,,OVC055,0.00,VWS V14.01,2013-06-20 15:19:00,
2013-06-20 11:24:00,72.4,66.2,30.20,NNE,26,0.0,5.0,81,0.00,,OVC055,0.00,VWS V14.01,2013-06-20 15:24:00,
2013-06-20 11:29:00,72.2,65.7,30.20,NNE,22,2.0,4.0,80,0.00,,OVC055,0.00,VWS V14.01,2013-06-20 15:29:00,
2013-06-20 11:30:00,72.2,65.7,30.20,NE,35,4.0,5.0,80,0.00,,OVC055,0.00,VWS V14.01,2013-06-20 15:30:00,
2013-06-20 11:34:00,72.4,66.6,30.20,NNE,24,1.0,4.0,82,0.00,,OVC055,0.00,VWS V14.01,2013-06-20 15:34:00,
2013-06-20 11:39:00,72.7,65.8,30.20,NE,41,0.0,4.0,79,0.00,,OVC055,0.00,VWS V14.01,2013-06-20 15:39:00,
2013-06-20 11:44:00,73.3,65.3,30.20,NE,36,1.0,5.0,76,0.00,,OVC055,0.00,VWS V14.01,2013-06-20 15:44:00,
2013-06-20 11:49:00,73.4,65.8,30.21,NNE,24,2.0,5.0,77,0.00,,OVC055,0.00,VWS V14.01,2013-06-20 15:49:00,
2013-06-20 11:54:00,73.5,66.2,30.21,NNE,22,0.0,5.0,78,0.00,,OVC055,0.00,VWS V14.01,2013-06-20 15:54:00,
2013-06-20 11:59:00,73.5,65.9,30.20,NNE,26,3.0,3.0,77,0.00,,OVC055,0.00,VWS V14.01,2013-06-20 15:59:00,
2013-06-20 12:00:00,73.5,65.9,30.21,NNE,23,1.0,5.0,77,0.00,,OVC055,0.00,VWS V14.01,2013-06-20 16:00:00,
2013-06-20 12:04:00,73.3,66.0,30.20,NE,40,1.0,4.0,78,0.00,,OVC055,0.00,VWS V14.01,2013-06-20 16:04:00,
2013-06-20 12:09:00,73.2,65.9,30.21,NE,35,2.0,4.0,78,0.00,,OVC055,0.00,VWS V14.01,2013-06-20 16:09:00,
2013-06-20 12:14:00,73.3,65.3,30.21,NNE,28,5.0,5.0,76,0.00,,OVC055,0.00,VWS V14.01,2013-06-20 16:14:00,
2013-06-20 12:19:00,73.3,66.0,30.21,NNE,24,1.0,5.0,78,0.00,,OVC055,0.00,VWS V14.01,2013-06-20 16:19:00,
2013-06-20 12:24:00,73.5,65.5,30.21,NNE,19,0.0,5.0,76,0.00,,OVC055,0.00,VWS V14.01,2013-06-20 16:24:00,
2013-06-20 12:29:00,74.0,66.0,30.21,North,351,1.0,1.0,76,0.00,,OVC055,0.00,VWS V14.01,2013-06-20 16:29:00,
2013-06-20 12:30:00,74.0,66.0,30.20,North,9,0.0,5.0,76,0.00,,OVC055,0.00,VWS V14.01,2013-06-20 16:30:00,
2013-06-20 12:34:00,74.4,66.3,30.20,East,92,0.0,3.0,76,0.00,,OVC055,0.00,VWS V14.01,2013-06-20 16:34:00,
2013-06-20 12:39:00,74.6,66.2,30.20,ESE,109,0.0,3.0,75,0.00,,OVC055,0.00,VWS V14.01,2013-06-20 16:39:00,
2013-06-20 12:44:00,74.6,65.8,30.21,South,169,0.0,3.0,74,0.00,,OVC055,0.00,VWS V14.01,2013-06-20 16:44:00,
2013-06-20 12:49:00,75.0,64.6,30.20,NNE,15,1.0,5.0,70,0.00,,OVC055,0.00,VWS V14.01,2013-06-20 16:49:00,
2013-06-20 12:54:00,75.3,66.1,30.20,ENE,58,0.0,5.0,73,0.00,,OVC055,0.00,VWS V14.01,2013-06-20 16:54:00,
2013-06-20 12:59:00,75.7,65.2,30.20,NNE,13,2.0,2.0,70,0.00,,OVC055,0.00,VWS V14.01,2013-06-20 16:59:00,
2013-06-20 13:00:00,75.7,65.6,30.20,NNE,14,1.0,5.0,71,0.00,,OVC055,0.00,VWS V14.01,2013-06-20 17:00:00,
2013-06-20 13:04:00,76.6,65.7,30.20,NNE,13,3.0,4.0,69,0.00,,OVC055,0.00,VWS V14.01,2013-06-20 17:04:00,
2013-06-20 13:09:00,77.4,66.9,30.20,SSE,168,0.0,4.0,70,0.00,,OVC055,0.00,VWS V14.01,2013-06-20 17:09:00,
2013-06-20 13:14:00,78.2,67.2,30.20,North,355,3.0,4.0,69,0.00,,OVC055,0.00,VWS V14.01,2013-06-20 17:14:00,
2013-06-20 13:19:00,77.1,65.7,30.20,NE,36,2.0,6.0,68,0.00,,OVC055,0.00,VWS V14.01,2013-06-20 17:19:00,
2013-06-20 13:24:00,77.0,63.9,30.20,North,351,3.0,6.0,64,0.00,,OVC055,0.00,VWS V14.01,2013-06-20 17:24:00,
2013-06-20 13:29:00,77.4,66.0,30.19,NNW,347,2.0,3.0,68,0.00,,OVC055,0.00,VWS V14.01,2013-06-20 17:29:00,
2013-06-20 13:30:00,77.3,65.5,30.19,NNW,346,3.0,6.0,67,0.00,,OVC055,0.00,VWS V14.01,2013-06-20 17:30:00,
2013-06-20 13:34:00,78.0,66.2,30.19,NNE,27,5.0,5.0,67,0.00,,OVC055,0.00,VWS V14.01,2013-06-20 17:34:00,
2013-06-20 13:39:00,77.2,64.5,30.19,NNE,24,3.0,5.0,65,0.00,,OVC055,0.00,VWS V14.01,2013-06-20 17:39:00,
2013-06-20 13:44:00,77.6,66.2,30.19,NNE,16,5.0,5.0,68,0.00,,OVC055,0.00,VWS V14.01,2013-06-20 17:44:00,
2013-06-20 13:49:00,78.0,65.7,30.19,North,5,2.0,6.0,66,0.00,,OVC055,0.00,VWS V14.01,2013-06-20 17:49:00,
2013-06-20 13:54:00,78.6,65.0,30.19,North,11,2.0,7.0,63,0.00,,OVC055,0.00,VWS V14.01,2013-06-20 17:54:00,
2013-06-20 13:59:00,78.2,65.0,30.19,NNE,30,4.0,4.0,64,0.00,,OVC055,0.00,VWS V14.01,2013-06-20 17:59:00,
2013-06-20 14:00:00,78.2,65.5,30.19,NNE,20,4.0,7.0,65,0.00,,OVC055,0.00,VWS V14.01,2013-06-20 18:00:00,
2013-06-20 14:03:00,77.8,66.0,30.19,NNE,24,6.0,6.0,67,0.00,,OVC055,0.00,VWS V14.01,2013-06-20 18:03:00,
2013-06-20 14:08:00,77.6,66.2,30.18,NNE,24,3.0,6.0,68,0.00,,OVC055,0.00,VWS V14.01,2013-06-20 18:08:00,
2013-06-20 14:13:00,77.2,65.4,30.19,NNE,19,2.0,6.0,67,0.00,,OVC055,0.00,VWS V14.01,2013-06-20 18:13:00,
2013-06-20 14:18:00,77.1,65.3,30.19,ESE,123,0.0,6.0,67,0.00,,OVC055,0.00,VWS V14.01,2013-06-20 18:18:00,
2013-06-20 14:23:00,77.0,66.9,30.18,SSW,213,0.0,6.0,71,0.00,,OVC055,0.00,VWS V14.01,2013-06-20 18:23:00,
2013-06-20 14:28:00,76.4,67.5,30.18,SSW,213,0.0,0.0,74,0.00,,OVC055,0.00,VWS V14.01,2013-06-20 18:28:00,
2013-06-20 14:30:00,76.4,67.1,30.18,SSW,213,0.0,6.0,73,0.00,,OVC055,0.00,VWS V14.01,2013-06-20 18:30:00,
2013-06-20 14:33:00,75.8,67.3,30.18,SSW,213,0.0,0.0,75,0.00,,OVC055,0.00,VWS V14.01,2013-06-20 18:33:00,
2013-06-20 14:38:00,75.3,67.2,30.18,SSW,213,0.0,1.0,76,0.00,,OVC055,0.00,VWS V14.01,2013-06-20 18:38:00,
2013-06-20 14:43:00,74.5,67.6,30.18,SSW,213,0.0,1.0,79,0.00,,OVC055,0.00,VWS V14.01,2013-06-20 18:43:00,
2013-06-20 14:48:00,74.1,67.2,30.18,SSW,213,0.0,1.0,79,0.00,,OVC055,0.00,VWS V14.01,2013-06-20 18:48:00,
2013-06-20 14:53:00,74.0,67.8,30.18,SSW,213,0.0,2.0,81,0.00,,OVC055,0.00,VWS V14.01,2013-06-20 18:53:00,
2013-06-20 14:58:00,74.0,67.4,30.18,SW,217,1.0,2.0,80,0.00,,OVC055,0.00,VWS V14.01,2013-06-20 18:58:00,
2013-06-20 15:00:00,74.0,67.4,30.18,SW,217,1.0,2.0,80,0.00,,OVC055,0.00,VWS V14.01,2013-06-20 19:00:00,
2013-06-20 15:03:00,74.0,68.2,30.18,SW,217,0.0,1.0,82,0.00,,OVC055,0.00,VWS V14.01,2013-06-20 19:03:00,
2013-06-20 15:08:00,74.0,67.8,30.18,SW,220,0.0,1.0,81,0.00,,OVC055,0.00,VWS V14.01,2013-06-20 19:08:00,
2013-06-20 15:13:00,73.9,67.7,30.18,WSW,244,0.0,5.0,81,0.00,,OVC055,0.00,VWS V14.01,2013-06-20 19:13:00,
2013-06-20 15:18:00,73.7,67.2,30.17,WSW,244,0.0,5.0,80,0.00,,OVC055,0.00,VWS V14.01,2013-06-20 19:18:00,
2013-06-20 15:23:00,73.3,67.5,30.17,WSW,244,1.0,5.0,82,0.00,,OVC055,0.00,VWS V14.01,2013-06-20 19:23:00,
2013-06-20 15:28:00,73.1,67.6,30.18,WSW,244,0.0,5.0,83,0.00,,OVC055,0.00,VWS V14.01,2013-06-20 19:28:00,
2013-06-20 15:30:00,73.1,67.6,30.18,WSW,244,0.0,5.0,83,0.00,,OVC055,0.00,VWS V14.01,2013-06-20 19:30:00,
2013-06-20 15:33:00,73.2,67.0,30.17,WSW,239,1.0,1.0,81,0.00,,OVC055,0.00,VWS V14.01,2013-06-20 19:33:00,
2013-06-20 15:38:00,74.4,68.9,30.17,West,275,0.0,3.0,83,0.00,,OVC055,0.00,VWS V14.01,2013-06-20 19:38:00,
2013-06-20 15:43:00,75.4,68.4,30.17,West,273,0.0,3.0,79,0.00,,OVC055,0.00,VWS V14.01,2013-06-20 19:43:00,
2013-06-20 15:48:00,75.8,67.7,30.17,SW,229,2.0,4.0,76,0.00,,OVC055,0.00,VWS V14.01,2013-06-20 19:48:00,
2013-06-20 15:53:00,75.3,67.6,30.17,WSW,238,0.0,4.0,77,0.00,,OVC055,0.00,VWS V14.01,2013-06-20 19:53:00,
2013-06-20 15:58:00,74.9,67.9,30.17,WSW,250,0.0,4.0,79,0.00,,OVC055,0.00,VWS V14.01,2013-06-20 19:58:00,
2013-06-20 16:00:00,74.8,67.9,30.17,WSW,250,0.0,4.0,79,0.00,,OVC055,0.00,VWS V14.01,2013-06-20 20:00:00,
2013-06-20 16:03:00,74.3,66.6,30.17,South,190,2.0,3.0,77,0.00,,OVC055,0.00,VWS V14.01,2013-06-20 20:03:00,
2013-06-20 16:08:00,73.8,67.2,30.17,SSW,206,0.0,3.0,80,0.00,,OVC055,0.00,VWS V14.01,2013-06-20 20:08:00,
2013-06-20 16:13:00,73.4,67.2,30.16,West,275,0.0,3.0,81,0.00,,OVC055,0.00,VWS V14.01,2013-06-20 20:13:00,
2013-06-20 16:18:00,73.2,66.7,30.16,West,277,0.0,3.0,80,0.00,,OVC055,0.00,VWS V14.01,2013-06-20 20:18:00,
2013-06-20 16:23:00,73.5,68.0,30.16,WNW,297,0.0,3.0,83,0.00,,OVC055,0.00,VWS V14.01,2013-06-20 20:23:00,
2013-06-20 16:28:00,73.8,68.0,30.16,NW,305,1.0,3.0,82,0.00,,OVC055,0.00,VWS V14.01,2013-06-20 20:28:00,
2013-06-20 16:30:00,73.8,68.0,30.16,NW,305,1.0,3.0,82,0.00,,OVC055,0.00,VWS V14.01,2013-06-20 20:30:00,
2013-06-20 16:33:00,73.7,67.9,30.16,NW,306,2.0,2.0,82,0.00,,OVC055,0.00,VWS V14.01,2013-06-20 20:33:00,
2013-06-20 16:38:00,73.7,68.2,30.16,WNW,292,1.0,2.0,83,0.00,,OVC055,0.00,VWS V14.01,2013-06-20 20:38:00,
2013-06-20 16:43:00,73.9,68.1,30.16,WNW,292,0.0,2.0,82,0.00,,OVC055,0.00,VWS V14.01,2013-06-20 20:43:00,
2013-06-20 16:48:00,73.8,66.9,30.16,WNW,292,0.0,2.0,79,0.00,,OVC055,0.00,VWS V14.01,2013-06-20 20:48:00,
2013-06-20 16:53:00,73.5,67.0,30.16,WNW,291,0.0,2.0,80,0.00,,OVC055,0.00,VWS V14.01,2013-06-20 20:53:00,
2013-06-20 16:58:00,73.3,67.1,30.16,WNW,290,0.0,2.0,81,0.00,,OVC055,0.00,VWS V14.01,2013-06-20 20:58:00,
2013-06-20 17:00:00,73.4,67.2,30.16,WNW,290,0.0,2.0,81,0.00,,OVC055,0.00,VWS V14.01,2013-06-20 21:00:00,
2013-06-20 17:03:00,73.4,67.2,30.16,WNW,287,0.0,1.0,81,0.00,,OVC055,0.00,VWS V14.01,2013-06-20 21:03:00,
2013-06-20 17:08:00,74.2,67.6,30.16,West,277,0.0,1.0,80,0.00,,OVC055,0.00,VWS V14.01,2013-06-20 21:08:00,
2013-06-20 17:13:00,75.1,66.2,30.16,WNW,299,0.0,4.0,74,0.00,,OVC055,0.00,VWS V14.01,2013-06-20 21:13:00,
2013-06-20 17:18:00,75.1,66.6,30.16,West,277,0.0,4.0,75,0.00,,OVC055,0.00,VWS V14.01,2013-06-20 21:18:00,
2013-06-20 17:23:00,75.0,66.9,30.16,West,277,0.0,4.0,76,0.00,,OVC055,0.00,VWS V14.01,2013-06-20 21:23:00,
2013-06-20 17:28:00,75.2,67.9,30.16,NNW,342,0.0,4.0,78,0.00,,OVC055,0.00,VWS V14.01,2013-06-20 21:28:00,
2013-06-20 17:30:00,75.2,67.9,30.16,NNW,342,0.0,4.0,78,0.00,,OVC055,0.00,VWS V14.01,2013-06-20 21:30:00,
2013-06-20 17:33:00,75.3,67.2,30.16,NNW,342,0.0,1.0,76,0.00,,OVC055,0.00,VWS V14.01,2013-06-20 21:33:00,
2013-06-20 17:38:00,74.7,67.0,30.16,NNW,333,0.0,1.0,77,0.00,,OVC055,0.00,VWS V14.01,2013-06-20 21:38:00,
2013-06-20 17:43:00,74.1,67.2,30.16,WNW,286,0.0,2.0,79,0.00,,OVC055,0.00,VWS V14.01,2013-06-20 21:43:00,
2013-06-20 17:48:00,73.5,67.3,30.16,WNW,286,0.0,2.0,81,0.00,,OVC055,0.00,VWS V14.01,2013-06-20 21:48:00,
2013-06-20 17:53:00,73.0,67.2,30.16,West,281,0.0,2.0,82,0.00,,OVC055,0.00,VWS V14.01,2013-06-20 21:53:00,
2013-06-20 17:58:00,72.4,66.2,30.16,SW,229,1.0,2.0,81,0.00,,OVC055,0.00,VWS V14.01,2013-06-20 21:58:00,
2013-06-20 18:00:00,72.3,66.2,30.16,SW,229,0.0,2.0,81,0.00,,OVC055,0.00,VWS V14.01,2013-06-20 22:00:00,
2013-06-20 18:03:00,71.9,66.1,30.15,SW,229,1.0,1.0,82,0.00,,OVC055,0.00,VWS V14.01,2013-06-20 22:03:00,
2013-06-20 18:08:00,71.7,65.9,30.15,SW,228,0.0,2.0,82,0.00,,OVC055,0.00,VWS V14.01,2013-06-20 22:08:00,
2013-06-20 18:13:00,71.5,66.4,30.16,SW,227,0.0,2.0,84,0.00,,OVC055,0.00,VWS V14.01,2013-06-20 22:13:00,
2013-06-20 18:18:00,71.4,66.7,30.16,SW,227,0.0,2.0,85,0.00,,OVC055,0.00,VWS V14.01,2013-06-20 22:18:00,
2013-06-20 18:23:00,71.2,66.8,30.16,SW,227,1.0,2.0,86,0.00,,OVC055,0.00,VWS V14.01,2013-06-20 22:23:00,
2013-06-20 18:28:00,70.8,65.7,30.16,SW,227,1.0,2.0,84,0.00,,OVC055,0.00,VWS V14.01,2013-06-20 22:28:00,
2013-06-20 18:30:00,70.8,65.7,30.16,SW,227,0.0,2.0,84,0.00,,OVC055,0.00,VWS V14.01,2013-06-20 22:30:00,
2013-06-20 18:33:00,70.6,65.9,30.16,SW,229,0.0,1.0,85,0.00,,OVC055,0.00,VWS V14.01,2013-06-20 22:33:00,
2013-06-20 18:38:00,70.5,65.8,30.16,SW,229,0.0,1.0,85,0.00,,OVC055,0.00,VWS V14.01,2013-06-20 22:38:00,
2013-06-20 18:43:00,70.5,66.1,30.16,SW,229,0.0,1.0,86,0.00,,OVC055,0.00,VWS V14.01,2013-06-20 22:43:00,
2013-06-20 18:48:00,70.4,66.0,30.16,SW,232,0.0,1.0,86,0.00,,OVC055,0.00,VWS V14.01,2013-06-20 22:48:00,
2013-06-20 18:53:00,70.3,65.9,30.17,SW,234,0.0,1.0,86,0.00,,OVC055,0.00,VWS V14.01,2013-06-20 22:53:00,
2013-06-20 18:58:00,70.1,66.1,30.17,SW,232,0.0,1.0,87,0.00,,OVC055,0.00,VWS V14.01,2013-06-20 22:58:00,
2013-06-20 19:00:00,70.1,65.7,30.17,SW,232,0.0,1.0,86,0.00,,OVC055,0.00,VWS V14.01,2013-06-20 23:00:00,
2013-06-20 19:03:00,69.9,65.5,30.17,SW,232,0.0,1.0,86,0.00,,OVC055,0.00,VWS V14.01,2013-06-20 23:03:00,
2013-06-20 19:08:00,69.8,65.1,30.17,SW,231,0.0,1.0,85,0.00,,OVC055,0.00,VWS V14.01,2013-06-20 23:08:00,
2013-06-20 19:13:00,69.7,65.0,30.17,SW,232,0.0,1.0,85,0.00,,OVC055,0.00,VWS V14.01,2013-06-20 23:13:00,
2013-06-20 19:18:00,69.8,65.1,30.17,SW,235,0.0,1.0,85,0.00,,OVC055,0.00,VWS V14.01,2013-06-20 23:18:00,
2013-06-20 19:23:00,69.7,65.3,30.17,SW,235,0.0,1.0,86,0.00,,OVC055,0.00,VWS V14.01,2013-06-20 23:23:00,
2013-06-20 19:28:00,69.5,65.1,30.17,SW,234,0.0,1.0,86,0.00,,OVC055,0.00,VWS V14.01,2013-06-20 23:28:00,
2013-06-20 19:30:00,69.5,65.1,30.17,SW,234,0.0,1.0,86,0.00,,OVC055,0.00,VWS V14.01,2013-06-20 23:30:00,
2013-06-20 19:33:00,69.2,65.2,30.17,WSW,238,0.0,1.0,87,0.00,,OVC055,0.00,VWS V14.01,2013-06-20 23:33:00,
2013-06-20 19:38:00,68.9,65.2,30.17,SW,236,0.0,1.0,88,0.00,,OVC055,0.00,VWS V14.01,2013-06-20 23:38:00,
2013-06-20 19:43:00,68.7,64.7,30.17,SW,236,0.0,1.0,87,0.00,,OVC055,0.00,VWS V14.01,2013-06-20 23:43:00,
2013-06-20 19:48:00,68.6,64.6,30.17,SW,236,0.0,1.0,87,0.00,,OVC055,0.00,VWS V14.01,2013-06-20 23:48:00,
2013-06-20 19:53:00,68.3,64.6,30.18,SW,236,0.0,1.0,88,0.00,,OVC055,0.00,VWS V14.01,2013-06-20 23:53:00,
2013-06-20 19:58:00,68.0,64.3,30.18,SW,232,0.0,1.0,88,0.00,,OVC055,0.00,VWS V14.01,2013-06-20 23:58:00,
2013-06-20 20:00:00,68.0,64.6,30.18,SW,232,0.0,1.0,89,0.00,,OVC055,0.00,VWS V14.01,2013-06-21 00:00:00,
2013-06-20 20:03:00,67.8,64.4,30.18,SW,232,0.0,0.0,89,0.00,,OVC055,0.00,VWS V14.01,2013-06-21 00:03:00,
2013-06-20 20:08:00,67.7,64.7,30.18,SW,232,0.0,0.0,90,0.00,,OVC055,0.00,VWS V14.01,2013-06-21 00:08:00,
2013-06-20 20:13:00,67.5,64.5,30.18,SW,228,0.0,0.0,90,0.00,,OVC055,0.00,VWS V14.01,2013-06-21 00:13:00,
2013-06-20 20:18:00,67.2,64.5,30.18,SW,228,0.0,1.0,91,0.00,,OVC055,0.00,VWS V14.01,2013-06-21 00:18:00,
2013-06-20 20:23:00,67.0,64.6,30.18,SW,228,0.0,1.0,92,0.00,,OVC055,0.00,VWS V14.01,2013-06-21 00:23:00,
2013-06-20 20:28:00,67.0,64.6,30.19,SW,229,0.0,1.0,92,0.00,,OVC055,0.00,VWS V14.01,2013-06-21 00:28:00,
2013-06-20 20:30:00,67.0,64.6,30.19,SW,229,0.0,1.0,92,0.00,,OVC055,0.00,VWS V14.01,2013-06-21 00:30:00,
2013-06-20 20:33:00,66.9,64.8,30.19,SW,229,0.0,0.0,93,0.00,,OVC055,0.00,VWS V14.01,2013-06-21 00:33:00,
2013-06-20 20:38:00,66.7,64.6,30.19,SW,229,0.0,0.0,93,0.00,,OVC055,0.00,VWS V14.01,2013-06-21 00:38:00,
2013-06-20 20:43:00,66.5,64.7,30.18,SW,229,0.0,0.0,94,0.00,,OVC055,0.00,VWS V14.01,2013-06-21 00:43:00,
2013-06-20 20:48:00,66.4,64.6,30.19,SW,229,0.0,0.0,94,0.00,,OVC055,0.00,VWS V14.01,2013-06-21 00:48:00,
2013-06-20 20:53:00,66.3,64.5,30.19,SW,229,0.0,1.0,94,0.00,,OVC055,0.00,VWS V14.01,2013-06-21 00:53:00,
2013-06-20 20:58:00,66.0,64.2,30.19,SW,229,0.0,1.0,94,0.00,,OVC055,0.00,VWS V14.01,2013-06-21 00:58:00,
2013-06-20 21:00:00,66.0,64.5,30.19,SW,229,0.0,1.0,95,0.00,,OVC055,0.00,VWS V14.01,2013-06-21 01:00:00,
2013-06-20 21:03:00,65.8,64.3,30.19,SW,229,0.0,0.0,95,0.00,,OVC055,0.00,VWS V14.01,2013-06-21 01:03:00,
2013-06-20 21:08:00,65.7,64.2,30.20,SW,229,0.0,0.0,95,0.00,,OVC055,0.00,VWS V14.01,2013-06-21 01:08:00,
2013-06-20 21:13:00,65.6,64.1,30.19,SW,229,0.0,0.0,95,0.00,,OVC055,0.00,VWS V14.01,2013-06-21 01:13:00,
2013-06-20 21:18:00,65.3,64.1,30.19,SW,229,0.0,0.0,96,0.00,,OVC055,0.00,VWS V14.01,2013-06-21 01:18:00,
2013-06-20 21:23:00,65.2,64.0,30.19,SW,229,0.0,0.0,96,0.00,,OVC055,0.00,VWS V14.01,2013-06-21 01:23:00,
2013-06-20 21:27:00,65.1,63.9,30.20,SW,229,0.0,0.0,96,0.00,,OVC055,0.00,VWS V14.01,2013-06-21 01:27:00,
2013-06-20 21:30:00,65.1,63.9,30.20,SW,229,0.0,0.0,96,0.00,,OVC055,0.00,VWS V14.01,2013-06-21 01:30:00,
2013-06-20 21:32:00,65.0,63.8,30.20,SW,229,0.0,0.0,96,0.00,,OVC055,0.00,VWS V14.01,2013-06-21 01:32:00,
2013-06-20 21:37:00,64.9,64.0,30.20,SW,229,0.0,0.0,97,0.00,,OVC055,0.00,VWS V14.01,2013-06-21 01:37:00,
2013-06-20 21:42:00,64.8,63.9,30.20,SW,229,0.0,0.0,97,0.00,,OVC055,0.00,VWS V14.01,2013-06-21 01:42:00,
2013-06-20 21:47:00,64.7,63.8,30.20,SW,229,0.0,0.0,97,0.00,,OVC055,0.00,VWS V14.01,2013-06-21 01:47:00,
2013-06-20 21:52:00,64.5,63.6,30.21,SW,229,0.0,0.0,97,0.00,,OVC055,0.00,VWS V14.01,2013-06-21 01:52:00,
2013-06-20 21:57:00,64.3,63.4,30.20,SW,229,0.0,0.0,97,0.00,,OVC055,0.00,VWS V14.01,2013-06-21 01:57:00,
2013-06-20 22:00:00,64.3,63.4,30.21,SW,229,0.0,0.0,97,0.00,,OVC055,0.00,VWS V14.01,2013-06-21 02:00:00,
2013-06-20 22:02:00,64.1,63.2,30.21,SW,229,0.0,0.0,97,0.00,,OVC055,0.00,VWS V14.01,2013-06-21 02:02:00,
2013-06-20 22:07:00,64.0,63.1,30.21,SW,229,0.0,0.0,97,0.00,,OVC055,0.00,VWS V14.01,2013-06-21 02:07:00,
2013-06-20 22:12:00,64.0,63.4,30.21,SW,229,0.0,0.0,98,0.00,,OVC055,0.00,VWS V14.01,2013-06-21 02:12:00,
2013-06-20 22:17:00,63.9,63.3,30.21,SW,229,0.0,0.0,98,0.00,,OVC055,0.00,VWS V14.01,2013-06-21 02:17:00,
2013-06-20 22:22:00,63.8,63.2,30.21,SW,229,0.0,0.0,98,0.00,,OVC055,0.00,VWS V14.01,2013-06-21 02:22:00,
2013-06-20 22:27:00,63.7,63.1,30.21,SW,229,0.0,0.0,98,0.00,,OVC055,0.00,VWS V14.01,2013-06-21 02:27:00,
2013-06-20 22:30:00,63.7,63.1,30.21,SW,229,0.0,0.0,98,0.00,,OVC055,0.00,VWS V14.01,2013-06-21 02:30:00,
2013-06-20 22:32:00,63.6,63.0,30.21,SW,229,0.0,0.0,98,0.00,,OVC055,0.00,VWS V14.01,2013-06-21 02:32:00,
2013-06-20 22:37:00,63.5,62.9,30.22,SW,229,0.0,0.0,98,0.00,,OVC055,0.00,VWS V14.01,2013-06-21 02:37:00,
2013-06-20 22:42:00,63.4,62.8,30.22,SW,229,0.0,0.0,98,0.00,,OVC055,0.00,VWS V14.01,2013-06-21 02:42:00,
2013-06-20 22:47:00,63.2,62.6,30.22,SW,229,0.0,0.0,98,0.00,,OVC055,0.00,VWS V14.01,2013-06-21 02:47:00,
2013-06-20 22:52:00,63.1,62.5,30.23,SW,229,0.0,0.0,98,0.00,,OVC055,0.00,VWS V14.01,2013-06-21 02:52:00,
2013-06-20 22:57:00,63.1,62.8,30.23,SW,229,0.0,0.0,99,0.00,,OVC055,0.00,VWS V14.01,2013-06-21 02:57:00,
2013-06-20 23:00:00,63.1,62.8,30.23,SW,229,0.0,0.0,99,0.00,,OVC055,0.00,VWS V14.01,2013-06-21 03:00:00,
2013-06-20 23:02:00,63.1,62.8,30.23,SW,229,0.0,0.0,99,0.00,,OVC055,0.00,VWS V14.01,2013-06-21 03:02:00,
2013-06-20 23:07:00,63.1,62.8,30.23,SW,229,0.0,0.0,99,0.00,,OVC055,0.00,VWS V14.01,2013-06-21 03:07:00,
2013-06-20 23:12:00,63.2,62.9,30.23,SW,229,0.0,0.0,99,0.00,,OVC055,0.00,VWS V14.01,2013-06-21 03:12:00,
2013-06-20 23:17:00,63.1,62.8,30.24,SW,229,0.0,0.0,99,0.00,,OVC055,0.00,VWS V14.01,2013-06-21 03:17:00,
2013-06-20 23:22:00,63.1,62.8,30.24,SW,229,0.0,0.0,99,0.00,,OVC055,0.00,VWS V14.01,2013-06-21 03:22:00,
2013-06-20 23:27:00,63.1,62.8,30.24,SW,229,0.0,0.0,99,0.00,,OVC055,0.00,VWS V14.01,2013-06-21 03:27:00,
2013-06-20 23:30:00,63.1,62.8,30.24,SW,229,0.0,0.0,99,0.00,,OVC055,0.00,VWS V14.01,2013-06-21 03:30:00,
2013-06-20 23:32:00,63.1,62.8,30.24,SW,229,0.0,0.0,99,0.00,,OVC055,0.00,VWS V14.01,2013-06-21 03:32:00,
2013-06-20 23:37:00,63.0,62.7,30.24,SW,229,0.0,0.0,99,0.00,,OVC055,0.00,VWS V14.01,2013-06-21 03:37:00,
2013-06-20 23:42:00,62.8,62.5,30.24,SW,229,0.0,0.0,99,0.00,,OVC055,0.00,VWS V14.01,2013-06-21 03:42:00,
2013-06-20 23:47:00,62.7,62.4,30.24,SW,229,0.0,0.0,99,0.00,,OVC055,0.00,VWS V14.01,2013-06-21 03:47:00,
2013-06-20 23:52:00,62.7,62.4,30.24,SW,229,0.0,0.0,99,0.00,,OVC055,0.00,VWS V14.01,2013-06-21 03:52:00,
2013-06-20 23:57:00,62.7,62.4,30.24,SW,229,0.0,0.0,99,0.00,,OVC055,0.00,VWS V14.01,2013-06-21 03:57:00,